New Post, Wisconsin
Current Conditions -  °F | °C
As of 6:53 PM on Saturday 20 Dec 2014 (Local Time) from KHYR Reporting Station
Overcast Overcast  
Wind Chill: 22°   Ceiling: 1300
Heat Index: 30°   Visibility: 7mi
Dew Point: 25°   Wind: 9mph
Humidity: 82%   Direction: 180°S
Pressure: 30.12"   Gusts: NA
Location:  45.7979°N, 91.3436°W
Report Text: KHYR 210053Z AUTO 18008KT 7SM OVC013 M01/M04 A3012 RMK AO2 SLP217 T10111039
Loading
Personal Weather Stations






























Interactive Weather Map New forecast layout! Learn more

10-Day Weather Forecast

Advertisements
Track Severe Weather on mobile